sensor_id;sensor_type;location;lat;lon;timestamp;pressure;altitude;pressure_sealevel;temperature;humidity
27429;BME280;14881;48.092;11.574;2023-03-14T00:02:26;93990.50;;;9.67;100.00
27429;BME280;14881;48.092;11.574;2023-03-14T00:04:54;93970.22;;;9.56;100.00
27429;BME280;14881;48.092;11.574;2023-03-14T00:07:25;93953.84;;;9.52;100.00
27429;BME280;14881;48.092;11.574;2023-03-14T00:09:52;93947.94;;;9.41;100.00
27429;BME280;14881;48.092;11.574;2023-03-14T00:12:22;93960.53;;;9.46;100.00
27429;BME280;14881;48.092;11.574;2023-03-14T00:14:50;93964.84;;;9.47;100.00
27429;BME280;14881;48.092;11.574;2023-03-14T00:17:18;93977.75;;;9.50;100.00
27429;BME280;14881;48.092;11.574;2023-03-14T00:19:46;93974.38;;;9.53;100.00
27429;BME280;14881;48.092;11.574;2023-03-14T00:22:13;93972.63;;;9.57;100.00
27429;BME280;14881;48.092;11.574;2023-03-14T00:24:42;93968.16;;;9.53;100.00
27429;BME280;14881;48.092;11.574;2023-03-14T00:27:10;93966.91;;;9.50;100.00
27429;BME280;14881;48.092;11.574;2023-03-14T00:29:38;93961.47;;;9.41;100.00
27429;BME280;14881;48.092;11.574;2023-03-14T00:32:06;93960.22;;;9.22;100.00
27429;BME280;14881;48.092;11.574;2023-03-14T00:34:34;93976.16;;;9.15;100.00
27429;BME280;14881;48.092;11.574;2023-03-14T00:37:02;93980.59;;;9.11;100.00
27429;BME280;14881;48.092;11.574;2023-03-14T00:39:29;93967.69;;;9.07;100.00
27429;BME280;14881;48.092;11.574;2023-03-14T00:41:58;93960.38;;;9.17;100.00
27429;BME280;14881;48.092;11.574;2023-03-14T00:44:26;93960.38;;;9.25;100.00
27429;BME280;14881;48.092;11.574;2023-03-14T00:46:54;93970.09;;;9.35;100.00
27429;BME280;14881;48.092;11.574;2023-03-14T00:49:25;93968.19;;;9.44;100.00
27429;BME280;14881;48.092;11.574;2023-03-14T00:51:53;93969.63;;;9.50;100.00
27429;BME280;14881;48.092;11.574;2023-03-14T00:54:21;93971.34;;;9.63;100.00
27429;BME280;14881;48.092;11.574;2023-03-14T00:56:51;93973.06;;;9.76;100.00
27429;BME280;14881;48.092;11.574;2023-03-14T00:59:21;93977.84;;;9.80;100.00
27429;BME280;14881;48.092;11.574;2023-03-14T01:01:51;93986.16;;;9.83;100.00
27429;BME280;14881;48.092;11.574;2023-03-14T01:04:19;93993.16;;;9.84;100.00
27429;BME280;14881;48.092;11.574;2023-03-14T01:06:47;94008.00;;;9.78;100.00
27429;BME280;14881;48.092;11.574;2023-03-14T01:09:15;94011.69;;;9.73;100.00
27429;BME280;14881;48.092;11.574;2023-03-14T01:11:49;94016.63;;;9.63;100.00
27429;BME280;14881;48.092;11.574;2023-03-14T01:14:17;94027.94;;;9.56;100.00
27429;BME280;14881;48.092;11.574;2023-03-14T01:16:49;94024.16;;;9.49;100.00
27429;BME280;14881;48.092;11.574;2023-03-14T01:19:16;94038.31;;;9.37;100.00
27429;BME280;14881;48.092;11.574;2023-03-14T01:21:44;94035.13;;;9.26;100.00
27429;BME280;14881;48.092;11.574;2023-03-14T01:24:12;94033.84;;;9.15;100.00
27429;BME280;14881;48.092;11.574;2023-03-14T01:26:39;94040.84;;;8.99;100.00
27429;BME280;14881;48.092;11.574;2023-03-14T01:29:12;94030.09;;;8.85;100.00
27429;BME280;14881;48.092;11.574;2023-03-14T01:31:44;94040.31;;;8.80;100.00
27429;BME280;14881;48.092;11.574;2023-03-14T01:34:13;94044.75;;;8.76;100.00
27429;BME280;14881;48.092;11.574;2023-03-14T01:36:41;94047.59;;;8.70;100.00
27429;BME280;14881;48.092;11.574;2023-03-14T01:39:08;94050.47;;;8.65;100.00
27429;BME280;14881;48.092;11.574;2023-03-14T01:41:36;94053.78;;;8.62;100.00
27429;BME280;14881;48.092;11.574;2023-03-14T01:44:04;94054.59;;;8.63;100.00
27429;BME280;14881;48.092;11.574;2023-03-14T01:46:36;94049.16;;;8.63;100.00
27429;BME280;14881;48.092;11.574;2023-03-14T01:49:14;94050.78;;;8.64;100.00
27429;BME280;14881;48.092;11.574;2023-03-14T01:51:49;94059.31;;;8.57;100.00
27429;BME280;14881;48.092;11.574;2023-03-14T01:54:21;94058.03;;;8.55;100.00
27429;BME280;14881;48.092;11.574;2023-03-14T01:56:54;94064.94;;;8.61;100.00
27429;BME280;14881;48.092;11.574;2023-03-14T01:59:24;94072.88;;;8.57;100.00
27429;BME280;14881;48.092;11.574;2023-03-14T02:01:54;94075.25;;;8.59;100.00
27429;BME280;14881;48.092;11.574;2023-03-14T02:04:28;94073.66;;;8.58;100.00
27429;BME280;14881;48.092;11.574;2023-03-14T02:07:04;94074.47;;;8.58;100.00
27429;BME280;14881;48.092;11.574;2023-03-14T02:09:35;94068.44;;;8.61;100.00
27429;BME280;14881;48.092;11.574;2023-03-14T02:12:04;94072.88;;;8.57;100.00
27429;BME280;14881;48.092;11.574;2023-03-14T02:14:35;94069.66;;;8.55;100.00
27429;BME280;14881;48.092;11.574;2023-03-14T02:17:04;94079.03;;;8.49;100.00
27429;BME280;14881;48.092;11.574;2023-03-14T02:19:49;94072.78;;;8.40;100.00
27429;BME280;14881;48.092;11.574;2023-03-14T02:22:21;94078.94;;;8.32;100.00
27429;BME280;14881;48.092;11.574;2023-03-14T02:24:59;94069.84;;;8.28;100.00
27429;BME280;14881;48.092;11.574;2023-03-14T02:27:31;94040.38;;;8.26;100.00
27429;BME280;14881;48.092;11.574;2023-03-14T02:30:06;94036.38;;;8.24;100.00
27429;BME280;14881;48.092;11.574;2023-03-14T02:32:38;94025.69;;;8.19;100.00
27429;BME280;14881;48.092;11.574;2023-03-14T02:35:11;94015.50;;;8.16;100.00
27429;BME280;14881;48.092;11.574;2023-03-14T02:37:42;93998.13;;;8.08;100.00
27429;BME280;14881;48.092;11.574;2023-03-14T02:40:13;93988.59;;;8.11;100.00
27429;BME280;14881;48.092;11.574;2023-03-14T02:42:46;93977.41;;;8.03;100.00
27429;BME280;14881;48.092;11.574;2023-03-14T02:45:33;93957.38;;;8.04;100.00
27429;BME280;14881;48.092;11.574;2023-03-14T02:48:07;93949.59;;;8.03;100.00
27429;BME280;14881;48.092;11.574;2023-03-14T02:50:36;93950.50;;;7.98;100.00
27429;BME280;14881;48.092;11.574;2023-03-14T02:53:05;93937.78;;;7.99;100.00
27429;BME280;14881;48.092;11.574;2023-03-14T02:55:33;93940.00;;;7.97;100.00
27429;BME280;14881;48.092;11.574;2023-03-14T02:58:02;93931.59;;;7.98;100.00
27429;BME280;14881;48.092;11.574;2023-03-14T03:00:30;93928.88;;;7.98;100.00
27429;BME280;14881;48.092;11.574;2023-03-14T03:02:58;93929.53;;;7.95;100.00
27429;BME280;14881;48.092;11.574;2023-03-14T03:05:25;93933.34;;;7.94;100.00
27429;BME280;14881;48.092;11.574;2023-03-14T03:07:56;93916.31;;;7.94;100.00
27429;BME280;14881;48.092;11.574;2023-03-14T03:10:24;93901.81;;;7.90;100.00
27429;BME280;14881;48.092;11.574;2023-03-14T03:12:52;93903.72;;;7.89;100.00
27429;BME280;14881;48.092;11.574;2023-03-14T03:15:25;93903.38;;;7.82;100.00
27429;BME280;14881;48.092;11.574;2023-03-14T03:17:56;93897.81;;;7.79;100.00
27429;BME280;14881;48.092;11.574;2023-03-14T03:20:26;93919.75;;;7.77;100.00
27429;BME280;14881;48.092;11.574;2023-03-14T03:22:59;93907.78;;;7.69;100.00
27429;BME280;14881;48.092;11.574;2023-03-14T03:25:27;93903.28;;;7.65;100.00
27429;BME280;14881;48.092;11.574;2023-03-14T03:27:55;93904.53;;;7.59;100.00
27429;BME280;14881;48.092;11.574;2023-03-14T03:30:25;93902.66;;;7.59;100.00
27429;BME280;14881;48.092;11.574;2023-03-14T03:32:52;93899.75;;;7.56;100.00
27429;BME280;14881;48.092;11.574;2023-03-14T03:35:20;93902.00;;;7.62;100.00
27429;BME280;14881;48.092;11.574;2023-03-14T03:37:48;93909.31;;;7.62;100.00
27429;BME280;14881;48.092;11.574;2023-03-14T03:40:16;93913.56;;;7.54;100.00
27429;BME280;14881;48.092;11.574;2023-03-14T03:42:47;93900.88;;;7.55;100.00
27429;BME280;14881;48.092;11.574;2023-03-14T03:45:17;93887.47;;;7.50;100.00
27429;BME280;14881;48.092;11.574;2023-03-14T03:47:46;93899.69;;;7.47;100.00
27429;BME280;14881;48.092;11.574;2023-03-14T03:50:14;93895.25;;;7.43;100.00
27429;BME280;14881;48.092;11.574;2023-03-14T03:52:41;93895.56;;;7.41;100.00
27429;BME280;14881;48.092;11.574;2023-03-14T03:55:09;93902.66;;;7.37;100.00
27429;BME280;14881;48.092;11.574;2023-03-14T03:57:37;93887.44;;;7.41;100.00
27429;BME280;14881;48.092;11.574;2023-03-14T04:00:07;93896.47;;;7.37;100.00
27429;BME280;14881;48.092;11.574;2023-03-14T04:02:38;93891.69;;;7.33;100.00
27429;BME280;14881;48.092;11.574;2023-03-14T04:05:08;93891.97;;;7.32;100.00
27429;BME280;14881;48.092;11.574;2023-03-14T04:07:36;93885.13;;;7.26;100.00
27429;BME280;14881;48.092;11.574;2023-03-14T04:10:04;93885.75;;;7.23;100.00
27429;BME280;14881;48.092;11.574;2023-03-14T04:12:35;93892.38;;;7.17;100.00
27429;BME280;14881;48.092;11.574;2023-03-14T04:15:04;93885.88;;;7.18;100.00
27429;BME280;14881;48.092;11.574;2023-03-14T04:17:31;93904.59;;;7.14;100.00
27429;BME280;14881;48.092;11.574;2023-03-14T04:20:02;93885.81;;;7.09;100.00
27429;BME280;14881;48.092;11.574;2023-03-14T04:22:34;93876.44;;;7.07;100.00
27429;BME280;14881;48.092;11.574;2023-03-14T04:25:03;93862.78;;;7.12;100.00
27429;BME280;14881;48.092;11.574;2023-03-14T04:27:31;93873.59;;;7.12;100.00
27429;BME280;14881;48.092;11.574;2023-03-14T04:29:58;93861.19;;;7.11;100.00
27429;BME280;14881;48.092;11.574;2023-03-14T04:32:26;93853.88;;;7.11;100.00
27429;BME280;14881;48.092;11.574;2023-03-14T04:34:54;93846.59;;;7.12;100.00
27429;BME280;14881;48.092;11.574;2023-03-14T04:37:21;93844.03;;;7.07;100.00
27429;BME280;14881;48.092;11.574;2023-03-14T04:39:50;93846.44;;;7.08;100.00
27429;BME280;14881;48.092;11.574;2023-03-14T04:42:18;93842.13;;;7.07;100.00
27429;BME280;14881;48.092;11.574;2023-03-14T04:44:46;93852.00;;;7.12;100.00
27429;BME280;14881;48.092;11.574;2023-03-14T04:47:15;93841.19;;;7.12;100.00
27429;BME280;14881;48.092;11.574;2023-03-14T04:49:43;93839.28;;;7.12;100.00
27429;BME280;14881;48.092;11.574;2023-03-14T04:52:11;93827.56;;;7.17;100.00
27429;BME280;14881;48.092;11.574;2023-03-14T04:54:38;93830.22;;;7.08;100.00
27429;BME280;14881;48.092;11.574;2023-03-14T04:57:08;93823.84;;;7.04;100.00
27429;BME280;14881;48.092;11.574;2023-03-14T04:59:36;93816.88;;;7.12;100.00
27429;BME280;14881;48.092;11.574;2023-03-14T05:02:04;93809.09;;;7.10;100.00
27429;BME280;14881;48.092;11.574;2023-03-14T05:04:31;93800.06;;;7.15;100.00
27429;BME280;14881;48.092;11.574;2023-03-14T05:07:00;93811.97;;;7.14;100.00
27429;BME280;14881;48.092;11.574;2023-03-14T05:09:28;93819.44;;;7.08;100.00
27429;BME280;14881;48.092;11.574;2023-03-14T05:11:58;93812.56;;;7.02;100.00
27429;BME280;14881;48.092;11.574;2023-03-14T05:14:27;93808.44;;;7.05;100.00
27429;BME280;14881;48.092;11.574;2023-03-14T05:16:55;93804.19;;;7.12;100.00
27429;BME280;14881;48.092;11.574;2023-03-14T05:19:23;93794.13;;;7.26;100.00
27429;BME280;14881;48.092;11.574;2023-03-14T05:21:54;93795.84;;;7.22;100.00
27429;BME280;14881;48.092;11.574;2023-03-14T05:24:21;93789.03;;;7.25;100.00
27429;BME280;14881;48.092;11.574;2023-03-14T05:26:49;93797.59;;;7.27;100.00
27429;BME280;14881;48.092;11.574;2023-03-14T05:29:17;93810.31;;;7.26;100.00
27429;BME280;14881;48.092;11.574;2023-03-14T05:31:46;93803.00;;;7.27;100.00
27429;BME280;14881;48.092;11.574;2023-03-14T05:34:14;93803.97;;;7.31;100.00
27429;BME280;14881;48.092;11.574;2023-03-14T05:36:41;93813.81;;;7.27;100.00
27429;BME280;14881;48.092;11.574;2023-03-14T05:39:09;93807.91;;;7.25;100.00
27429;BME280;14881;48.092;11.574;2023-03-14T05:41:37;93805.38;;;7.28;100.00
27429;BME280;14881;48.092;11.574;2023-03-14T05:44:05;93797.28;;;7.28;100.00
27429;BME280;14881;48.092;11.574;2023-03-14T05:46:32;93795.84;;;7.31;100.00
27429;BME280;14881;48.092;11.574;2023-03-14T05:49:01;93792.22;;;7.36;100.00
27429;BME280;14881;48.092;11.574;2023-03-14T05:51:31;93797.63;;;7.36;100.00
27429;BME280;14881;48.092;11.574;2023-03-14T05:54:01;93798.13;;;7.38;100.00
27429;BME280;14881;48.092;11.574;2023-03-14T05:56:29;93790.16;;;7.32;100.00
27429;BME280;14881;48.092;11.574;2023-03-14T05:58:59;93795.25;;;7.34;100.00
27429;BME280;14881;48.092;11.574;2023-03-14T06:01:29;93791.13;;;7.37;100.00
27429;BME280;14881;48.092;11.574;2023-03-14T06:03:57;93789.72;;;7.39;100.00
27429;BME280;14881;48.092;11.574;2023-03-14T06:06:34;93787.00;;;7.39;100.00
27429;BME280;14881;48.092;11.574;2023-03-14T06:09:05;93787.81;;;7.40;100.00
27429;BME280;14881;48.092;11.574;2023-03-14T06:11:33;93792.91;;;7.41;100.00
27429;BME280;14881;48.092;11.574;2023-03-14T06:14:03;93784.47;;;7.43;100.00
27429;BME280;14881;48.092;11.574;2023-03-14T06:16:31;93776.69;;;7.41;100.00
27429;BME280;14881;48.092;11.574;2023-03-14T06:18:59;93778.78;;;7.44;100.00
27429;BME280;14881;48.092;11.574;2023-03-14T06:21:27;93781.13;;;7.46;100.00
27429;BME280;14881;48.092;11.574;2023-03-14T06:23:56;93777.81;;;7.49;100.00
27429;BME280;14881;48.092;11.574;2023-03-14T06:26:23;93780.34;;;7.45;100.00
27429;BME280;14881;48.092;11.574;2023-03-14T06:28:51;93776.53;;;7.46;100.00
27429;BME280;14881;48.092;11.574;2023-03-14T06:31:19;93756.81;;;7.46;100.00
27429;BME280;14881;48.092;11.574;2023-03-14T06:33:47;93754.13;;;7.46;100.00
27429;BME280;14881;48.092;11.574;2023-03-14T06:36:15;93757.16;;;7.44;100.00
27429;BME280;14881;48.092;11.574;2023-03-14T06:38:49;93743.81;;;7.48;100.00
27429;BME280;14881;48.092;11.574;2023-03-14T06:41:18;93742.88;;;7.52;100.00
27429;BME280;14881;48.092;11.574;2023-03-14T06:43:46;93744.94;;;7.55;100.00
27429;BME280;14881;48.092;11.574;2023-03-14T06:46:13;93750.53;;;7.59;100.00
27429;BME280;14881;48.092;11.574;2023-03-14T06:48:41;93763.06;;;7.63;100.00
27429;BME280;14881;48.092;11.574;2023-03-14T06:51:09;93769.75;;;7.66;100.00
27429;BME280;14881;48.092;11.574;2023-03-14T06:53:37;93768.97;;;7.65;100.00
27429;BME280;14881;48.092;11.574;2023-03-14T06:56:06;93775.47;;;7.64;100.00
27429;BME280;14881;48.092;11.574;2023-03-14T06:58:35;93775.66;;;7.68;100.00
27429;BME280;14881;48.092;11.574;2023-03-14T07:01:03;93775.69;;;7.77;100.00
27429;BME280;14881;48.092;11.574;2023-03-14T07:03:31;93781.22;;;7.80;100.00
27429;BME280;14881;48.092;11.574;2023-03-14T07:05:59;93778.22;;;7.82;100.00
27429;BME280;14881;48.092;11.574;2023-03-14T07:08:27;93786.03;;;7.83;100.00
27429;BME280;14881;48.092;11.574;2023-03-14T07:10:56;93778.22;;;7.82;100.00
27429;BME280;14881;48.092;11.574;2023-03-14T07:13:24;93779.50;;;7.84;100.00
27429;BME280;14881;48.092;11.574;2023-03-14T07:15:53;93772.50;;;7.83;100.00
27429;BME280;14881;48.092;11.574;2023-03-14T07:18:21;93768.06;;;7.79;100.00
27429;BME280;14881;48.092;11.574;2023-03-14T07:20:48;93783.94;;;7.80;100.00
27429;BME280;14881;48.092;11.574;2023-03-14T07:23:17;93776.97;;;7.79;100.00
27429;BME280;14881;48.092;11.574;2023-03-14T07:25:47;93777.44;;;7.81;100.00
27429;BME280;14881;48.092;11.574;2023-03-14T07:28:15;93781.09;;;7.85;100.00
27429;BME280;14881;48.092;11.574;2023-03-14T07:30:46;93785.41;;;7.86;100.00
27429;BME280;14881;48.092;11.574;2023-03-14T07:33:15;93778.44;;;7.94;100.00
27429;BME280;14881;48.092;11.574;2023-03-14T07:35:43;93770.31;;;8.02;100.00
27429;BME280;14881;48.092;11.574;2023-03-14T07:38:11;93770.03;;;8.13;100.00
27429;BME280;14881;48.092;11.574;2023-03-14T07:40:39;93764.59;;;8.21;100.00
27429;BME280;14881;48.092;11.574;2023-03-14T07:43:06;93754.59;;;8.30;100.00
27429;BME280;14881;48.092;11.574;2023-03-14T07:45:34;93746.97;;;8.32;100.00
27429;BME280;14881;48.092;11.574;2023-03-14T07:48:08;93747.94;;;8.45;100.00
27429;BME280;14881;48.092;11.574;2023-03-14T07:50:37;93737.72;;;8.59;100.00
27429;BME280;14881;48.092;11.574;2023-03-14T07:53:05;93735.78;;;8.77;100.00
27429;BME280;14881;48.092;11.574;2023-03-14T07:55:33;93725.56;;;8.91;100.00
27429;BME280;14881;48.092;11.574;2023-03-14T07:58:00;93728.91;;;8.97;100.00
27429;BME280;14881;48.092;11.574;2023-03-14T08:00:28;93729.47;;;9.11;100.00
27429;BME280;14881;48.092;11.574;2023-03-14T08:02:56;93734.06;;;9.19;100.00
27429;BME280;14881;48.092;11.574;2023-03-14T08:05:24;93736.91;;;9.31;100.00
27429;BME280;14881;48.092;11.574;2023-03-14T08:07:53;93735.91;;;9.36;100.00
27429;BME280;14881;48.092;11.574;2023-03-14T08:10:21;93734.75;;;9.46;100.00
27429;BME280;14881;48.092;11.574;2023-03-14T08:12:50;93734.63;;;9.42;100.00
27429;BME280;14881;48.092;11.574;2023-03-14T08:15:18;93736.81;;;9.49;100.00
27429;BME280;14881;48.092;11.574;2023-03-14T08:17:45;93732.31;;;9.53;100.00
27429;BME280;14881;48.092;11.574;2023-03-14T08:20:17;93739.47;;;9.57;100.00
27429;BME280;14881;48.092;11.574;2023-03-14T08:22:45;93740.75;;;9.60;100.00
27429;BME280;14881;48.092;11.574;2023-03-14T08:25:15;93738.84;;;9.60;100.00
27429;BME280;14881;48.092;11.574;2023-03-14T08:27:43;93745.06;;;9.61;100.00
27429;BME280;14881;48.092;11.574;2023-03-14T08:30:13;93750.44;;;9.69;100.00
27429;BME280;14881;48.092;11.574;2023-03-14T08:32:41;93744.66;;;9.71;100.00
27429;BME280;14881;48.092;11.574;2023-03-14T08:35:09;93747.53;;;9.74;100.00
27429;BME280;14881;48.092;11.574;2023-03-14T08:37:37;93748.97;;;9.72;100.00
27429;BME280;14881;48.092;11.574;2023-03-14T08:40:06;93760.09;;;9.79;100.00
27429;BME280;14881;48.092;11.574;2023-03-14T08:42:36;93762.19;;;9.73;100.00
27429;BME280;14881;48.092;11.574;2023-03-14T08:45:06;93767.47;;;9.70;100.00
27429;BME280;14881;48.092;11.574;2023-03-14T08:47:34;93769.88;;;9.71;100.00
27429;BME280;14881;48.092;11.574;2023-03-14T08:50:02;93766.97;;;9.76;100.00
27429;BME280;14881;48.092;11.574;2023-03-14T08:52:30;93776.84;;;9.81;100.00
27429;BME280;14881;48.092;11.574;2023-03-14T08:54:58;93777.50;;;9.78;100.00
27429;BME280;14881;48.092;11.574;2023-03-14T08:57:26;93776.56;;;9.74;100.00
27429;BME280;14881;48.092;11.574;2023-03-14T08:59:56;93776.75;;;9.69;100.00
27429;BME280;14881;48.092;11.574;2023-03-14T09:02:25;93771.78;;;9.71;100.00
27429;BME280;14881;48.092;11.574;2023-03-14T09:04:56;93774.31;;;9.76;100.00
27429;BME280;14881;48.092;11.574;2023-03-14T09:07:25;93777.19;;;9.80;100.00
27429;BME280;14881;48.092;11.574;2023-03-14T09:09:53;93783.47;;;9.92;100.00
27429;BME280;14881;48.092;11.574;2023-03-14T09:12:21;93781.38;;;9.98;100.00
27429;BME280;14881;48.092;11.574;2023-03-14T09:14:49;93775.53;;;9.87;100.00
27429;BME280;14881;48.092;11.574;2023-03-14T09:17:18;93776.13;;;9.93;100.00
27429;BME280;14881;48.092;11.574;2023-03-14T09:19:46;93781.38;;;9.98;100.00
27429;BME280;14881;48.092;11.574;2023-03-14T09:22:14;93778.19;;;9.96;100.00
27429;BME280;14881;48.092;11.574;2023-03-14T09:24:43;93780.19;;;9.87;100.00
27429;BME280;14881;48.092;11.574;2023-03-14T09:27:10;93787.22;;;9.79;100.00
27429;BME280;14881;48.092;11.574;2023-03-14T09:29:41;93781.34;;;9.77;100.00
27429;BME280;14881;48.092;11.574;2023-03-14T09:32:09;93778.63;;;9.77;100.00
27429;BME280;14881;48.092;11.574;2023-03-14T09:34:38;93785.16;;;9.76;100.00
27429;BME280;14881;48.092;11.574;2023-03-14T09:37:07;93780.69;;;9.80;100.00
27429;BME280;14881;48.092;11.574;2023-03-14T09:39:34;93774.47;;;9.80;100.00
27429;BME280;14881;48.092;11.574;2023-03-14T09:42:04;93763.75;;;9.83;100.00
27429;BME280;14881;48.092;11.574;2023-03-14T09:44:36;93760.97;;;9.92;100.00
27429;BME280;14881;48.092;11.574;2023-03-14T09:47:09;93756.69;;;9.91;100.00
27429;BME280;14881;48.092;11.574;2023-03-14T09:49:43;93761.59;;;9.97;100.00
27429;BME280;14881;48.092;11.574;2023-03-14T09:52:13;93766.22;;;9.97;100.00
27429;BME280;14881;48.092;11.574;2023-03-14T09:54:44;93764.47;;;10.01;100.00
27429;BME280;14881;48.092;11.574;2023-03-14T09:57:15;93757.91;;;10.02;100.00
27429;BME280;14881;48.092;11.574;2023-03-14T09:59:45;93745.41;;;10.09;100.00
27429;BME280;14881;48.092;11.574;2023-03-14T10:02:17;93743.19;;;10.32;100.00
27429;BME280;14881;48.092;11.574;2023-03-14T10:04:48;93746.66;;;10.21;100.00
27429;BME280;14881;48.092;11.574;2023-03-14T10:07:19;93744.22;;;10.40;100.00
27429;BME280;14881;48.092;11.574;2023-03-14T10:09:50;93742.63;;;10.60;100.00
27429;BME280;14881;48.092;11.574;2023-03-14T10:12:19;93733.97;;;10.66;100.00
27429;BME280;14881;48.092;11.574;2023-03-14T10:14:49;93740.69;;;10.81;100.00
27429;BME280;14881;48.092;11.574;2023-03-14T10:17:18;93727.44;;;10.79;100.00
27429;BME280;14881;48.092;11.574;2023-03-14T10:19:56;93736.22;;;10.97;100.00
27429;BME280;14881;48.092;11.574;2023-03-14T10:22:29;93736.03;;;11.14;100.00
27429;BME280;14881;48.092;11.574;2023-03-14T10:25:02;93734.03;;;11.48;100.00
27429;BME280;14881;48.092;11.574;2023-03-14T10:27:32;93731.22;;;11.81;100.00
27429;BME280;14881;48.092;11.574;2023-03-14T10:30:01;93719.56;;;12.45;100.00
27429;BME280;14881;48.092;11.574;2023-03-14T10:32:33;93702.09;;;12.46;100.00
27429;BME280;14881;48.092;11.574;2023-03-14T10:35:18;93702.25;;;12.25;100.00
27429;BME280;14881;48.092;11.574;2023-03-14T10:37:51;93706.59;;;12.14;100.00
27429;BME280;14881;48.092;11.574;2023-03-14T10:40:25;93709.56;;;11.97;100.00
27429;BME280;14881;48.092;11.574;2023-03-14T10:42:54;93711.19;;;12.38;100.00
27429;BME280;14881;48.092;11.574;2023-03-14T10:45:31;93704.91;;;12.49;100.00
27429;BME280;14881;48.092;11.574;2023-03-14T10:48:16;93708.34;;;12.46;100.00
27429;BME280;14881;48.092;11.574;2023-03-14T10:50:54;93713.53;;;12.51;100.00
27429;BME280;14881;48.092;11.574;2023-03-14T10:53:23;93714.88;;;12.17;100.00
27429;BME280;14881;48.092;11.574;2023-03-14T10:55:55;93715.53;;;12.27;100.00
27429;BME280;14881;48.092;11.574;2023-03-14T10:58:25;93714.38;;;12.40;100.00
27429;BME280;14881;48.092;11.574;2023-03-14T11:01:05;93716.97;;;12.36;100.00
27429;BME280;14881;48.092;11.574;2023-03-14T11:03:37;93729.94;;;12.27;100.00
27429;BME280;14881;48.092;11.574;2023-03-14T11:06:12;93728.09;;;12.31;100.00
27429;BME280;14881;48.092;11.574;2023-03-14T11:08:45;93730.41;;;12.29;100.00
27429;BME280;14881;48.092;11.574;2023-03-14T11:11:19;93720.03;;;12.35;100.00
27429;BME280;14881;48.092;11.574;2023-03-14T11:13:57;93725.97;;;12.25;100.00
27429;BME280;14881;48.092;11.574;2023-03-14T11:16:34;93717.31;;;12.35;100.00
27429;BME280;14881;48.092;11.574;2023-03-14T11:22:14;93725.94;;;12.65;100.00
27429;BME280;14881;48.092;11.574;2023-03-14T11:24:52;93707.81;;;12.84;100.00
27429;BME280;14881;48.092;11.574;2023-03-14T11:27:30;93715.94;;;12.69;100.00
27429;BME280;14881;48.092;11.574;2023-03-14T11:30:06;93706.59;;;12.82;100.00
27429;BME280;14881;48.092;11.574;2023-03-14T11:32:44;93717.91;;;13.12;100.00
27429;BME280;14881;48.092;11.574;2023-03-14T11:35:17;93703.34;;;13.36;100.00
27429;BME280;14881;48.092;11.574;2023-03-14T11:37:52;93712.59;;;13.78;100.00
27429;BME280;14881;48.092;11.574;2023-03-14T11:40:23;93701.06;;;13.85;100.00
27429;BME280;14881;48.092;11.574;2023-03-14T11:42:58;93693.59;;;14.17;100.00
27429;BME280;14881;48.092;11.574;2023-03-14T11:45:28;93691.72;;;13.86;100.00
27429;BME280;14881;48.092;11.574;2023-03-14T11:48:07;93679.19;;;13.50;100.00
27429;BME280;14881;48.092;11.574;2023-03-14T11:50:43;93713.38;;;13.16;100.00
27429;BME280;14881;48.092;11.574;2023-03-14T11:53:15;93687.13;;;12.96;100.00
27429;BME280;14881;48.092;11.574;2023-03-14T11:55:44;93693.69;;;12.79;100.00
27429;BME280;14881;48.092;11.574;2023-03-14T11:58:17;93696.78;;;12.65;100.00
27429;BME280;14881;48.092;11.574;2023-03-14T12:00:49;93700.00;;;12.55;100.00
27429;BME280;14881;48.092;11.574;2023-03-14T12:03:26;93700.41;;;12.69;100.00
27429;BME280;14881;48.092;11.574;2023-03-14T12:06:03;93692.53;;;12.52;100.00
27429;BME280;14881;48.092;11.574;2023-03-14T12:08:54;93687.28;;;12.59;100.00
27429;BME280;14881;48.092;11.574;2023-03-14T12:11:38;93692.47;;;12.92;100.00
27429;BME280;14881;48.092;11.574;2023-03-14T12:14:19;93680.09;;;13.10;100.00
27429;BME280;14881;48.092;11.574;2023-03-14T12:16:49;93688.06;;;13.31;100.00
27429;BME280;14881;48.092;11.574;2023-03-14T12:19:35;93690.34;;;13.61;100.00
27429;BME280;14881;48.092;11.574;2023-03-14T12:22:19;93680.13;;;13.57;100.00
27429;BME280;14881;48.092;11.574;2023-03-14T12:24:52;93678.75;;;13.32;100.00
27429;BME280;14881;48.092;11.574;2023-03-14T12:27:46;93686.25;;;13.07;100.00
27429;BME280;14881;48.092;11.574;2023-03-14T12:30:18;93677.41;;;12.82;100.00
27429;BME280;14881;48.092;11.574;2023-03-14T12:36:48;93693.63;;;12.63;100.00
27429;BME280;14881;48.092;11.574;2023-03-14T12:39:21;93680.63;;;12.72;100.00
27429;BME280;14881;48.092;11.574;2023-03-14T12:42:02;93688.38;;;13.14;100.00
27429;BME280;14881;48.092;11.574;2023-03-14T12:44:56;93698.38;;;13.10;100.00
27429;BME280;14881;48.092;11.574;2023-03-14T12:48:12;93686.94;;;13.04;100.00
27429;BME280;14881;48.092;11.574;2023-03-14T12:50:43;93702.22;;;13.21;100.00
27429;BME280;14881;48.092;11.574;2023-03-14T12:53:44;93696.50;;;13.42;100.00
27429;BME280;14881;48.092;11.574;2023-03-14T12:56:24;93654.66;;;13.69;100.00
27429;BME280;14881;48.092;11.574;2023-03-14T12:59:09;93690.84;;;13.82;100.00
27429;BME280;14881;48.092;11.574;2023-03-14T13:01:47;93697.91;;;13.67;100.00
27429;BME280;14881;48.092;11.574;2023-03-14T13:04:15;93728.22;;;13.18;100.00
27429;BME280;14881;48.092;11.574;2023-03-14T13:06:53;93704.13;;;12.77;100.00
27429;BME280;14881;48.092;11.574;2023-03-14T13:12:37;93718.50;;;12.62;100.00
27429;BME280;14881;48.092;11.574;2023-03-14T13:15:18;93717.53;;;12.98;100.00
27429;BME280;14881;48.092;11.574;2023-03-14T13:17:51;93712.69;;;12.91;100.00